Insider Buying

 
Symbol Name Keyword
Filings for:
Note: This page automatically refreshes every three minutes.
  Symbol Owner Relationship Date Cost # Shares Value($) Total Shares Filing
Y! TBK Sepulveda Carlos M Director May 15, 2019 $29.43 3,000 88,290 522,291 May 16, 2019, 05:04 PM
Y! ARCC Torre Bates Ann Director May 15, 2019 $17.61 5,725 100,817 8,000 May 16, 2019, 05:00 PM
Y! ARCC Torre Bates Ann Director May 15, 2019 $17.61 4,000 70,440 24,000 May 16, 2019, 05:00 PM
Y! TBK Rafferty Michael P Director May 15, 2019 $29.25 1,500 43,875 29,788 May 16, 2019, 05:00 PM
Y! BBCP Young Bruce F. Chief Executive Officer May 14, 2019 $4.50 200,000 900,000 2,868,639 May 16, 2019, 04:59 PM
Y! AMRX Bhadauria Pradeep SVP, Chief Scientific Officer May 15, 2019 $8.48 7,000 59,360 7,500 May 16, 2019, 04:59 PM
Y! COMM McClelland Bruce William EVP & COO May 14, 2019 $18.28 4,000 73,120 77,983 May 16, 2019, 04:52 PM
Y! THMG Jones Eric T CEO May 15, 2019 $0.09 10,000 850 3,149,043 May 16, 2019, 04:52 PM
Y! PRTS Peker Lev Chief Executive Officer May 15, 2019 $1.01 33,869 34,208 33,869 May 16, 2019, 04:44 PM
Y! PRTS Peker Lev Chief Executive Officer May 15, 2019 $1.00 56,000 56,000 56,000 May 16, 2019, 04:44 PM
Y! PRTS Meniane David CFO and COO May 14, 2019 $1.03 100,000 103,000 100,000 May 16, 2019, 04:41 PM
Y! RDN Spiegel Noel Joseph Director Sep 07, 2018 $20.58 2 41 20,002 May 16, 2019, 04:39 PM
Y! RDN Spiegel Noel Joseph Director Sep 07, 2018 $20.58 1 21 10,001 May 16, 2019, 04:39 PM
Y! LAZY MURNANE WILLIAM P Chief Executive Officer May 14, 2019 $4.25 5,000 21,250 180,382 May 16, 2019, 04:30 PM
Y! LAZY TOMASHOT NICHOLAS J Chief Financial Officer May 14, 2019 $4.82 2,000 9,640 5,831 May 16, 2019, 04:30 PM
Y! CREE LE DUY LOAN T Director May 15, 2019 $64.46 2,000 128,920 6,442 May 16, 2019, 04:29 PM
Y! ELSE Zipoy Michael C. Director May 15, 2019 $3.57 5,000 17,873 10,000 May 16, 2019, 04:28 PM
Y! PFLT Efrat Aviv CFO May 14, 2019 $12.05 8,200 98,817 36,950 May 16, 2019, 04:24 PM
Y! CERC Pedder Simon Executive Chairman of the Bd May 14, 2019 $5.06 6,000 30,336 6,000 May 16, 2019, 04:19 PM
Y! N O G REGER MICHAEL LEWIS President May 15, 2019 $2.22 100,000 222,490 10,013,053 May 16, 2019, 04:15 PM
Y! N O G REGER MICHAEL LEWIS President May 14, 2019 $2.19 100,000 218,660 9,913,053 May 16, 2019, 04:15 PM
Y! EGY Bounds Cary M Chief Executive Officer & COO May 15, 2019 $1.72 22 38 458,495 May 16, 2019, 04:11 PM
Y! EGY Bounds Cary M Chief Executive Officer & COO May 16, 2019 $1.80 5,600 10,080 464,095 May 16, 2019, 04:11 PM
Y! GRBK Brandler Harry Director May 14, 2019 $8.97 5,000 44,854 19,176 May 16, 2019, 04:11 PM
Y! HBP TANNER DELBERT H Director May 15, 2019 $2.80 21,238 59,381 211,201 May 16, 2019, 04:10 PM
Y! SYMC Feld Peter A Director May 16, 2019 $19.73 458,274 9,042,684 18,958,151 May 16, 2019, 04:06 PM
Y! SYMC Feld Peter A Director May 16, 2019 $19.73 23,763 468,893 1,040,230 May 16, 2019, 04:06 PM
Y! SYMC Feld Peter A Director May 16, 2019 $19.73 116,780 2,304,308 1,008,989 May 16, 2019, 04:06 PM
Y! SYMC Feld Peter A Director May 16, 2019 $19.73 41,521 819,294 1,817,504 May 16, 2019, 04:06 PM
Y! SYMC Feld Peter A Director May 16, 2019 $19.73 5,937 117,149 1,622,601 May 16, 2019, 04:06 PM
Y! SYMC Feld Peter A Director May 16, 2019 $19.73 3,725 73,502 1,209,659 May 16, 2019, 04:06 PM
Y! HUN Wright Scott J Division President May 14, 2019 $20.22 4,950 100,079 33,922 May 16, 2019, 04:06 PM
Y! SYMC Feld Peter A Director May 15, 2019 $19.51 116,779 2,277,810 892,209 May 16, 2019, 04:04 PM
Y! SYMC Feld Peter A Director May 15, 2019 $19.51 41,521 809,880 1,775,983 May 16, 2019, 04:04 PM
Y! SYMC Feld Peter A Director May 15, 2019 $19.51 5,937 115,803 1,616,664 May 16, 2019, 04:04 PM
Y! SYMC Feld Peter A Director May 15, 2019 $19.51 3,725 72,657 1,205,934 May 16, 2019, 04:04 PM
Y! SYMC Feld Peter A Director May 15, 2019 $19.51 458,275 8,938,795 18,499,877 May 16, 2019, 04:04 PM
Y! SYMC Feld Peter A Director May 15, 2019 $19.51 23,763 463,505 1,016,467 May 16, 2019, 04:04 PM
Y! SYMC Feld Peter A Director May 14, 2019 $19.53 6,394 124,861 1,610,727 May 16, 2019, 04:01 PM
Y! SYMC Feld Peter A Director May 14, 2019 $19.53 4,011 78,326 1,202,209 May 16, 2019, 04:01 PM
Y! SYMC Feld Peter A Director May 14, 2019 $19.53 493,526 9,637,491 18,041,602 May 16, 2019, 04:01 PM
Y! SYMC Feld Peter A Director May 14, 2019 $19.53 25,591 499,737 992,704 May 16, 2019, 04:01 PM
Y! SYMC Feld Peter A Director May 14, 2019 $19.53 125,764 2,455,898 775,430 May 16, 2019, 04:01 PM
Y! SYMC Feld Peter A Director May 14, 2019 $19.53 44,714 873,167 1,734,462 May 16, 2019, 04:01 PM
Y! OCSL Gero Deborah Ann Director May 14, 2019 $5.48 2,000 10,953 2,000 May 16, 2019, 04:00 PM
Y! OCSI Gero Deborah Ann Director May 14, 2019 $8.48 2,000 16,959 2,000 May 16, 2019, 04:00 PM
Y! LGND Aryeh Jason Director May 14, 2019 $112.51 250 28,128 59,368 May 16, 2019, 03:54 PM
Y! CLSN Tardugno Michael H Chairman, President and CEO May 16, 2019 $2.16 5,000 10,810 32,700 May 16, 2019, 03:50 PM
Y! FUSB Elley Thomas S VP,CFO,PAO,Treas,Asst Sec May 16, 2019 $10.00 500 5,000 5,750 May 16, 2019, 03:49 PM
Y! CINR DUCEY MICHAEL E Director May 15, 2019 $19.36 1,750 33,880 16,001 May 16, 2019, 03:41 PM
Y! CINR DUCEY MICHAEL E Director May 16, 2019 $19.32 3,435 66,364 19,436 May 16, 2019, 03:41 PM
Y! CINR Freydel Eduard Vice President, Finance May 15, 2019 $19.05 500 9,525 6,059 May 16, 2019, 03:35 PM
Y! FRBK WILDSTEIN HARRIS Director May 16, 2019 $4.97 5,000 24,850 810,566 May 16, 2019, 03:26 PM
Y! AP Fessenden Elizabeth Anne Director May 15, 2019 $4.04 3,711 15,007 20,928 May 16, 2019, 03:22 PM
Y! OLBG Herzog John E 10% Owner Apr 14, 2013 $0.15 166,666 25,000 1,333,332 May 16, 2019, 02:58 PM
Y! OLBG Herzog John E 10% Owner Feb 28, 2013 $0.15 166,666 25,000 1,166,666 May 16, 2019, 02:58 PM
Y! FRBK TIERNEY BRIAN Director May 15, 2019 $4.92 6,000 29,520 52,913 May 16, 2019, 02:53 PM
Y! XCLIX THRIVENT FINANCIAL FOR LUTHERANS 10% Owner May 16, 2019 $10.27 19,474 199,998 988,686 May 16, 2019, 02:50 PM
Y! FRBK Spevak Barry Director May 15, 2019 $4.83 5,000 24,167 24,999 May 16, 2019, 02:50 PM
Y! FRBK Flocco Theodore J JR Director May 15, 2019 $4.87 5,000 24,342 53,500 May 16, 2019, 02:48 PM
Y! TRCB GROSSMAN ROBERT B Director May 14, 2019 $14.91 289 4,309 89,980 May 16, 2019, 02:41 PM
Y! CLSN Martinez Alberto R Jr Director May 16, 2019 $2.15 4,000 8,600 24,000 May 16, 2019, 02:37 PM
Y! AP LIEBERMAN WILLIAM K Director May 16, 2019 $4.00 2,300 9,197 5,300 May 16, 2019, 02:24 PM
Y! AP McBrayer Brett Chief Executive Officer May 16, 2019 $4.07 3,875 15,766 58,281 May 16, 2019, 02:23 PM
Y! FRAF Cekovich Ronald L svp May 15, 2019 $38.78 3 116 6,706 May 16, 2019, 02:10 PM
Y! FRAF Carmack Karen K svp May 15, 2019 $38.78 1 39 863 May 16, 2019, 02:07 PM
Y! HVBC Marino Robert Joseph Director May 15, 2019 $15.75 854 13,451 35,824 May 16, 2019, 01:44 PM
Y! GER Cooper Matthew Portfolio Manager May 14, 2019 $5.62 20,250 113,805 94,835 May 16, 2019, 01:33 PM
Y! SYNC Bhise Himesh Chief Executive Officer May 14, 2019 $1.55 15,000 23,325 41,000 May 16, 2019, 01:30 PM
Y! EEA Leoni Wolfgang Helmut Director May 15, 2019 $8.65 1,156 9,999 1,156 May 16, 2019, 01:29 PM
Y! EEA Leoni Wolfgang Helmut Director May 15, 2019 $8.65 1,552 13,425 1,552 May 16, 2019, 01:15 PM
Y! CWGL Quille Nicolas Michel Eric COO May 15, 2019 $7.45 300 2,235 500 May 16, 2019, 01:12 PM
Y! GF Leoni Wolfgang Helmut Director May 15, 2019 $14.23 703 10,004 703 May 16, 2019, 01:11 PM
Y! FRBK Jacobs Lisa R. Director May 14, 2019 $4.84 2,900 14,026 8,600 May 16, 2019, 01:05 PM
Y! SQBG PRESCOTT GROUP CAPITAL MANAGEMENT, L.L.C. 10% Owner May 14, 2019 $0.78 24,778 19,408 9,433,544 May 16, 2019, 12:30 PM
Y! USX Connors Philip Director May 14, 2019 $5.99 1,000 5,990 5,202 May 16, 2019, 12:16 PM
Y! NKSH BALL LAWRENCE J Director May 16, 2019 $40.00 1,000 40,000 6,000 May 16, 2019, 11:47 AM
Y! TPL HORIZON KINETICS ASSET MANAGEMENT LLC 10% Owner May 15, 2019 $837.84 36 30,162 296,968 May 16, 2019, 11:34 AM
Y! AP GERMAN MICHAEL I Director May 15, 2019 $3.95 10,000 39,457 10,000 May 16, 2019, 10:32 AM
Y! EFSI CLAYTOR CARY R Director May 14, 2019 $32.00 156 4,992 156 May 16, 2019, 09:41 AM
Y! EFSI CLAYTOR CARY R Director May 14, 2019 $32.00 156 4,992 156 May 16, 2019, 09:41 AM
Y! EFSI CLAYTOR CARY R Director May 14, 2019 $32.00 156 4,992 913 May 16, 2019, 09:41 AM
Y! MTOR Boehm Rodger L Director May 14, 2019 $21.00 2,000 42,000 15,541 May 16, 2019, 09:08 AM
Y! PNNT PENN ARTHUR H Chairman and CEO / Investment May 15, 2019 $6.58 15,000 98,746 695,923 May 16, 2019, 09:00 AM
Y! PFLT PENN ARTHUR H Chairman and CEO May 15, 2019 $12.09 9,500 114,839 218,209 May 16, 2019, 09:00 AM
Y! NICK MALSON KELLY M CFO May 15, 2019 $8.97 2,094 18,776 41,170 May 16, 2019, 08:51 AM
Y! HRTX Christian Waage Director May 15, 2019 $18.04 1,400 25,262 1,400 May 16, 2019, 08:44 AM
Y! HARP McMahon Gerald PhD President and CEO May 14, 2019 $10.16 1,000 10,157 3,000 May 16, 2019, 08:32 AM
Y! KNDI Hu Xiaoming President and CEO May 15, 2019 $4.75 122,032 579,652 12,811,404 May 16, 2019, 08:07 AM
Y! VTVT PERELMAN RONALD O 10% Owner May 15, 2019 $1.84 1,358,698 2,500,004 17,852,351 May 16, 2019, 07:54 AM
Y! WTRE Scherer Alexandre CEO (WSIC; WIC) May 15, 2019 $25.99 1,481 38,484 4,000 May 15, 2019, 09:00 PM
Y! WTRE Scherer Alexandre CEO (WSIC; WIC) May 13, 2019 $25.60 1,319 33,766 2,519 May 15, 2019, 09:00 PM
Y! EGY Knapp Alfred John Jr. Director May 14, 2019 $1.68 100,000 168,000 408,446 May 15, 2019, 08:45 PM
Y! EGY Bounds Cary M Chief Executive Officer & COO May 14, 2019 $1.63 6,000 9,780 458,473 May 15, 2019, 08:42 PM
Y! SPFI Wargo Kyle R Director May 13, 2019 $17.50 5,700 99,750 6,872 May 15, 2019, 08:27 PM
Y! SPFI Valles Noe G Director May 13, 2019 $17.50 260 4,550 83,272 May 15, 2019, 08:22 PM
Y! SPFI Newsom Mikella D Chief Risk Officer & Secretary May 13, 2019 $17.50 550 9,625 5,050 May 15, 2019, 08:17 PM
Y! TECTP Wicker Daniel C Director May 14, 2019 $10.00 5,000 50,000 5,000 May 15, 2019, 08:12 PM
Y! SPFI Newsom Cory T President May 13, 2019 $17.50 5,500 96,250 161,904 May 15, 2019, 08:12 PM
Y! TECTP SHERMAN A HAAG Chief Executive Officer May 14, 2019 $10.00 5,000 50,000 5,000 May 15, 2019, 08:06 PM
First : Previous : Next : Last
 
Symbol Name Keyword
Filings for:
Note: This page automatically refreshes every three minutes.
Desktop Version
Symbol Owner Relationship Date Value($)
TBK Sepulveda Carlos M Director May 15, 2019 88,290
ARCC Torre Bates Ann Director May 15, 2019 100,817
ARCC Torre Bates Ann Director May 15, 2019 70,440
TBK Rafferty Michael P Director May 15, 2019 43,875
BBCP Young Bruce F. Chief Executive Officer May 14, 2019 900,000
AMRX Bhadauria Pradeep SVP, Chief Scientific Officer May 15, 2019 59,360
COMM McClelland Bruce William EVP & COO May 14, 2019 73,120
THMG Jones Eric T CEO May 15, 2019 850
PRTS Peker Lev Chief Executive Officer May 15, 2019 34,208
PRTS Peker Lev Chief Executive Officer May 15, 2019 56,000
PRTS Meniane David CFO and COO May 14, 2019 103,000
RDN Spiegel Noel Joseph Director Sep 07, 2018 41
RDN Spiegel Noel Joseph Director Sep 07, 2018 21
LAZY MURNANE WILLIAM P Chief Executive Officer May 14, 2019 21,250
LAZY TOMASHOT NICHOLAS J Chief Financial Officer May 14, 2019 9,640
CREE LE DUY LOAN T Director May 15, 2019 128,920
ELSE Zipoy Michael C. Director May 15, 2019 17,873
PFLT Efrat Aviv CFO May 14, 2019 98,817
CERC Pedder Simon Executive Chairman of the Bd May 14, 2019 30,336
N O G REGER MICHAEL LEWIS President May 15, 2019 222,490
N O G REGER MICHAEL LEWIS President May 14, 2019 218,660
EGY Bounds Cary M Chief Executive Officer & COO May 15, 2019 38
EGY Bounds Cary M Chief Executive Officer & COO May 16, 2019 10,080
GRBK Brandler Harry Director May 14, 2019 44,854
HBP TANNER DELBERT H Director May 15, 2019 59,381
SYMC Feld Peter A Director May 16, 2019 9,042,684
SYMC Feld Peter A Director May 16, 2019 468,893
SYMC Feld Peter A Director May 16, 2019 2,304,308
SYMC Feld Peter A Director May 16, 2019 819,294
SYMC Feld Peter A Director May 16, 2019 117,149
SYMC Feld Peter A Director May 16, 2019 73,502
HUN Wright Scott J Division President May 14, 2019 100,079
SYMC Feld Peter A Director May 15, 2019 2,277,810
SYMC Feld Peter A Director May 15, 2019 809,880
SYMC Feld Peter A Director May 15, 2019 115,803
SYMC Feld Peter A Director May 15, 2019 72,657
SYMC Feld Peter A Director May 15, 2019 8,938,795
SYMC Feld Peter A Director May 15, 2019 463,505
SYMC Feld Peter A Director May 14, 2019 124,861
SYMC Feld Peter A Director May 14, 2019 78,326
SYMC Feld Peter A Director May 14, 2019 9,637,491
SYMC Feld Peter A Director May 14, 2019 499,737
SYMC Feld Peter A Director May 14, 2019 2,455,898
SYMC Feld Peter A Director May 14, 2019 873,167
OCSL Gero Deborah Ann Director May 14, 2019 10,953
OCSI Gero Deborah Ann Director May 14, 2019 16,959
LGND Aryeh Jason Director May 14, 2019 28,128
CLSN Tardugno Michael H Chairman, President and CEO May 16, 2019 10,810
FUSB Elley Thomas S VP,CFO,PAO,Treas,Asst Sec May 16, 2019 5,000
CINR DUCEY MICHAEL E Director May 15, 2019 33,880
CINR DUCEY MICHAEL E Director May 16, 2019 66,364
CINR Freydel Eduard Vice President, Finance May 15, 2019 9,525
FRBK WILDSTEIN HARRIS Director May 16, 2019 24,850
AP Fessenden Elizabeth Anne Director May 15, 2019 15,007
OLBG Herzog John E 10% Owner Apr 14, 2013 25,000
OLBG Herzog John E 10% Owner Feb 28, 2013 25,000
FRBK TIERNEY BRIAN Director May 15, 2019 29,520
XCLIX THRIVENT FINANCIAL FOR LUTHERANS 10% Owner May 16, 2019 199,998
FRBK Spevak Barry Director May 15, 2019 24,167
FRBK Flocco Theodore J JR Director May 15, 2019 24,342
TRCB GROSSMAN ROBERT B Director May 14, 2019 4,309
CLSN Martinez Alberto R Jr Director May 16, 2019 8,600
AP LIEBERMAN WILLIAM K Director May 16, 2019 9,197
AP McBrayer Brett Chief Executive Officer May 16, 2019 15,766
FRAF Cekovich Ronald L svp May 15, 2019 116
FRAF Carmack Karen K svp May 15, 2019 39
HVBC Marino Robert Joseph Director May 15, 2019 13,451
GER Cooper Matthew Portfolio Manager May 14, 2019 113,805
SYNC Bhise Himesh Chief Executive Officer May 14, 2019 23,325
EEA Leoni Wolfgang Helmut Director May 15, 2019 9,999
EEA Leoni Wolfgang Helmut Director May 15, 2019 13,425
CWGL Quille Nicolas Michel Eric COO May 15, 2019 2,235
GF Leoni Wolfgang Helmut Director May 15, 2019 10,004
FRBK Jacobs Lisa R. Director May 14, 2019 14,026
SQBG PRESCOTT GROUP CAPITAL MANAGEMENT, L.L.C. 10% Owner May 14, 2019 19,408
USX Connors Philip Director May 14, 2019 5,990
NKSH BALL LAWRENCE J Director May 16, 2019 40,000
TPL HORIZON KINETICS ASSET MANAGEMENT LLC 10% Owner May 15, 2019 30,162
AP GERMAN MICHAEL I Director May 15, 2019 39,457
EFSI CLAYTOR CARY R Director May 14, 2019 4,992
EFSI CLAYTOR CARY R Director May 14, 2019 4,992
EFSI CLAYTOR CARY R Director May 14, 2019 4,992
MTOR Boehm Rodger L Director May 14, 2019 42,000
PNNT PENN ARTHUR H Chairman and CEO / Investment May 15, 2019 98,746
PFLT PENN ARTHUR H Chairman and CEO May 15, 2019 114,839
NICK MALSON KELLY M CFO May 15, 2019 18,776
HRTX Christian Waage Director May 15, 2019 25,262
HARP McMahon Gerald PhD President and CEO May 14, 2019 10,157
KNDI Hu Xiaoming President and CEO May 15, 2019 579,652
VTVT PERELMAN RONALD O 10% Owner May 15, 2019 2,500,004
WTRE Scherer Alexandre CEO (WSIC; WIC) May 15, 2019 38,484
WTRE Scherer Alexandre CEO (WSIC; WIC) May 13, 2019 33,766
EGY Knapp Alfred John Jr. Director May 14, 2019 168,000
EGY Bounds Cary M Chief Executive Officer & COO May 14, 2019 9,780
SPFI Wargo Kyle R Director May 13, 2019 99,750
SPFI Valles Noe G Director May 13, 2019 4,550
SPFI Newsom Mikella D Chief Risk Officer & Secretary May 13, 2019 9,625
TECTP Wicker Daniel C Director May 14, 2019 50,000
SPFI Newsom Cory T President May 13, 2019 96,250
TECTP SHERMAN A HAAG Chief Executive Officer May 14, 2019 50,000
First : Previous : Next : Last